Time;durP1;ratioP1;P1;durP2;ratioP2;P2;SDS_P1;SDS_P2;PMS_P1;PMS_P2;Temp;Humidity;BMP_temperature;BMP_pressure;BME280_temperature;BME280_humidity;BME280_pressure;Samples;Min_cycle;Max_cycle;Signal;HPM_P1;HPM_P2
2023/12/17 00:01:34;;;;;;;27.58;17.73;;;1.70;99.90;;;;;;5045513;28;20323;-76
2023/12/17 00:04:00;;;;;;;32.00;17.95;;;1.70;99.90;;;;;;5045884;28;20052;-78
2023/12/17 00:06:26;;;;;;;29.90;18.10;;;1.60;99.90;;;;;;5028306;28;20034;-79
2023/12/17 00:08:53;;;;;;;27.40;17.35;;;1.60;99.90;;;;;;5028449;28;20193;-76
2023/12/17 00:11:18;;;;;;;33.92;19.38;;;1.60;99.90;;;;;;5045762;28;20017;-77
2023/12/17 00:13:44;;;;;;;29.65;18.30;;;1.60;99.90;;;;;;5044920;28;20127;-76
2023/12/17 00:16:10;;;;;;;28.83;18.30;;;1.60;99.90;;;;;;5046257;28;20083;-76
2023/12/17 00:18:35;;;;;;;32.15;18.45;;;1.60;99.90;;;;;;5045429;28;20327;-75
2023/12/17 00:21:01;;;;;;;33.05;18.05;;;1.50;99.90;;;;;;5045710;28;20037;-77
2023/12/17 00:23:30;;;;;;;29.40;18.17;;;1.50;99.90;;;;;;5045774;28;20056;-75
2023/12/17 00:25:55;;;;;;;28.73;16.98;;;1.50;99.90;;;;;;5045673;28;20025;-76
2023/12/17 00:28:21;;;;;;;28.20;16.92;;;1.50;99.90;;;;;;5045480;28;20037;-77
2023/12/17 00:30:50;;;;;;;31.25;17.55;;;1.40;99.90;;;;;;5044360;28;20025;-76
2023/12/17 00:33:16;;;;;;;27.98;17.85;;;1.50;99.90;;;;;;5044315;28;20025;-76
2023/12/17 00:35:42;;;;;;;27.15;17.00;;;1.50;99.90;;;;;;5045106;28;20025;-75
2023/12/17 00:38:08;;;;;;;30.52;18.30;;;1.40;99.90;;;;;;5045275;28;20144;-76
2023/12/17 00:40:34;;;;;;;31.15;18.52;;;1.40;99.90;;;;;;5044960;28;20089;-77
2023/12/17 00:42:59;;;;;;;27.58;17.52;;;1.40;99.90;;;;;;5027711;28;20157;-75
2023/12/17 00:45:25;;;;;;;31.85;18.65;;;1.40;99.90;;;;;;5044858;28;20013;-76
2023/12/17 00:47:51;;;;;;;30.40;17.63;;;1.40;99.90;;;;;;5026927;28;20025;-78
2023/12/17 00:50:17;;;;;;;29.02;17.35;;;1.40;99.90;;;;;;5026625;28;20040;-74
2023/12/17 00:52:42;;;;;;;34.10;17.80;;;1.40;99.90;;;;;;5044505;28;20029;-76
2023/12/17 00:55:08;;;;;;;25.60;16.23;;;1.40;99.90;;;;;;5044440;28;20243;-77
2023/12/17 00:57:34;;;;;;;29.23;17.42;;;1.40;99.90;;;;;;5043856;28;20044;-75
2023/12/17 00:59:59;;;;;;;28.50;17.25;;;1.40;99.90;;;;;;5044917;28;20037;-74
2023/12/17 01:02:25;;;;;;;32.22;18.17;;;1.30;99.90;;;;;;5027424;28;20033;-73
2023/12/17 01:04:51;;;;;;;27.67;16.50;;;1.30;99.90;;;;;;5022981;28;20030;-77
2023/12/17 01:07:16;;;;;;;28.77;16.27;;;1.30;99.90;;;;;;5031408;28;20033;-75
2023/12/17 01:09:42;;;;;;;25.73;16.52;;;1.40;99.90;;;;;;5044515;28;20060;-75
2023/12/17 01:12:08;;;;;;;32.05;17.52;;;1.40;99.90;;;;;;5044508;28;20331;-77
2023/12/17 01:14:34;;;;;;;30.48;17.65;;;1.30;99.90;;;;;;5044309;28;20180;-76
2023/12/17 01:17:04;;;;;;;30.17;17.67;;;1.40;99.90;;;;;;5044655;28;20029;-75
2023/12/17 01:19:31;;;;;;;27.50;16.77;;;1.30;99.90;;;;;;5044147;28;20029;-75
2023/12/17 01:21:57;;;;;;;31.02;16.52;;;1.40;99.90;;;;;;5018637;28;20105;-77
2023/12/17 01:24:23;;;;;;;26.92;16.92;;;1.30;99.90;;;;;;5024944;28;20029;-75
2023/12/17 01:26:49;;;;;;;28.25;16.27;;;1.30;99.90;;;;;;5024098;28;20594;-78
2023/12/17 01:29:14;;;;;;;26.58;15.25;;;1.30;99.90;;;;;;5024631;28;20022;-77
2023/12/17 01:31:40;;;;;;;25.40;15.77;;;1.30;99.90;;;;;;5024536;28;20033;-77
2023/12/17 01:34:07;;;;;;;27.02;17.65;;;1.30;99.90;;;;;;5023539;28;20041;-77
2023/12/17 01:36:33;;;;;;;25.37;16.80;;;1.30;99.90;;;;;;5034398;28;20013;-77
2023/12/17 01:38:59;;;;;;;28.63;16.05;;;1.30;99.90;;;;;;5026688;28;20305;-77
2023/12/17 01:41:24;;;;;;;28.00;15.75;;;1.20;99.90;;;;;;5044391;28;20083;-77
2023/12/17 01:43:50;;;;;;;24.27;15.32;;;1.20;99.90;;;;;;5043652;28;20033;-77
2023/12/17 01:46:16;;;;;;;26.65;16.10;;;1.20;99.90;;;;;;5044414;28;20097;-75
2023/12/17 01:48:42;;;;;;;25.75;16.38;;;1.20;99.90;;;;;;5043721;28;20208;-76
2023/12/17 01:51:11;;;;;;;24.02;15.30;;;1.20;99.90;;;;;;5043915;28;20059;-75
2023/12/17 01:53:37;;;;;;;26.00;16.00;;;1.20;99.90;;;;;;5042967;28;20028;-76
2023/12/17 01:56:05;;;;;;;27.88;15.75;;;1.20;99.90;;;;;;5026369;28;20052;-76
2023/12/17 01:58:31;;;;;;;23.55;15.23;;;1.10;99.90;;;;;;5043711;28;20045;-77
2023/12/17 02:00:58;;;;;;;25.73;15.38;;;1.10;99.90;;;;;;5044121;28;20033;-77
2023/12/17 02:03:24;;;;;;;22.73;14.95;;;1.00;99.90;;;;;;5043930;28;20033;-76
2023/12/17 02:05:49;;;;;;;22.27;14.65;;;1.00;99.90;;;;;;5043439;28;20334;-76
2023/12/17 02:08:15;;;;;;;23.42;15.00;;;1.00;99.90;;;;;;5043693;28;20243;-75
2023/12/17 02:10:41;;;;;;;23.25;14.32;;;1.00;99.90;;;;;;5042888;28;20251;-77
2023/12/17 02:13:10;;;;;;;27.83;16.13;;;0.90;99.90;;;;;;5043674;28;20029;-76
2023/12/17 02:15:39;;;;;;;24.13;15.73;;;0.90;99.90;;;;;;5043329;28;20437;-77
2023/12/17 02:18:05;;;;;;;25.05;14.82;;;0.90;99.90;;;;;;5043611;28;20021;-74
2023/12/17 02:20:31;;;;;;;25.05;15.88;;;0.90;99.90;;;;;;5043497;28;20045;-75
2023/12/17 02:22:58;;;;;;;26.48;15.45;;;0.90;99.90;;;;;;5043690;28;20087;-74
2023/12/17 02:25:25;;;;;;;26.25;14.70;;;0.90;99.90;;;;;;5043244;28;20033;-75
2023/12/17 02:27:50;;;;;;;24.65;15.23;;;0.90;99.90;;;;;;5024733;28;20023;-74
2023/12/17 02:30:16;;;;;;;23.42;14.68;;;0.90;99.90;;;;;;5025750;28;20108;-76
2023/12/17 02:32:42;;;;;;;25.80;14.80;;;0.90;99.90;;;;;;5042709;28;20041;-77
2023/12/17 02:35:07;;;;;;;24.05;15.05;;;0.80;99.90;;;;;;5043352;28;20021;-76
2023/12/17 02:37:33;;;;;;;27.88;15.75;;;0.80;99.90;;;;;;5025368;28;20068;-74
2023/12/17 02:40:06;;;;;;;25.90;15.07;;;0.80;99.90;;;;;;5043085;28;20060;-76
2023/12/17 02:42:32;;;;;;;23.52;14.95;;;0.80;99.90;;;;;;5041980;28;20029;-76
2023/12/17 02:44:57;;;;;;;26.40;15.30;;;0.80;99.90;;;;;;5042354;28;20029;-75
2023/12/17 02:47:23;;;;;;;21.25;14.15;;;0.80;99.90;;;;;;5042971;28;20076;-76
2023/12/17 02:49:49;;;;;;;21.80;14.60;;;0.80;99.90;;;;;;5042722;28;20052;-75
2023/12/17 02:52:14;;;;;;;22.58;14.88;;;0.80;99.90;;;;;;5042818;28;20021;-74
2023/12/17 02:54:40;;;;;;;25.48;16.15;;;0.70;99.90;;;;;;5024996;28;20040;-75
2023/12/17 02:57:06;;;;;;;22.98;13.98;;;0.80;99.90;;;;;;5050148;28;20059;-75
2023/12/17 02:59:31;;;;;;;23.95;14.68;;;0.70;99.90;;;;;;5050295;28;20034;-74
2023/12/17 03:01:57;;;;;;;24.08;15.07;;;0.60;99.90;;;;;;5041991;28;20029;-76
2023/12/17 03:04:23;;;;;;;23.10;15.15;;;0.60;99.90;;;;;;5042534;28;20029;-74
2023/12/17 03:06:49;;;;;;;23.75;14.45;;;0.70;99.90;;;;;;5042572;28;20060;-76
2023/12/17 03:09:15;;;;;;;25.92;15.05;;;0.70;99.90;;;;;;5043045;28;20029;-76
2023/12/17 03:11:41;;;;;;;24.00;14.55;;;0.70;99.90;;;;;;5041490;28;20017;-74
2023/12/17 03:14:07;;;;;;;23.65;15.43;;;0.60;99.90;;;;;;5042598;28;20076;-77
2023/12/17 03:16:33;;;;;;;25.65;15.82;;;0.60;99.90;;;;;;5042709;28;20300;-78
2023/12/17 03:18:59;;;;;;;25.73;16.60;;;0.60;99.90;;;;;;5024736;28;20025;-75
2023/12/17 03:21:26;;;;;;;24.98;15.70;;;0.70;99.90;;;;;;5042499;28;20109;-75
2023/12/17 03:23:53;;;;;;;23.38;15.07;;;0.70;99.90;;;;;;5041889;28;20262;-78
2023/12/17 03:26:20;;;;;;;29.60;16.33;;;0.70;99.90;;;;;;5042144;28;20029;-76
2023/12/17 03:28:46;;;;;;;23.20;14.88;;;0.70;99.90;;;;;;5041665;28;20025;-75
2023/12/17 03:31:14;;;;;;;20.63;14.23;;;0.60;99.90;;;;;;5038909;28;20033;-74
2023/12/17 03:33:41;;;;;;;21.95;14.05;;;0.60;99.90;;;;;;5042410;28;20080;-76
2023/12/17 03:36:07;;;;;;;22.63;13.97;;;0.60;99.90;;;;;;5025107;28;20137;-77
2023/12/17 03:38:33;;;;;;;23.58;14.57;;;0.50;99.90;;;;;;5008604;28;20056;-76
2023/12/17 03:40:59;;;;;;;26.02;14.50;;;0.50;99.90;;;;;;5041915;28;20033;-76
2023/12/17 03:43:25;;;;;;;23.13;14.48;;;0.50;99.90;;;;;;5024895;28;20263;-77
2023/12/17 03:45:50;;;;;;;22.58;14.63;;;0.50;99.90;;;;;;5041228;28;20037;-75
2023/12/17 03:48:17;;;;;;;21.20;13.27;;;0.60;99.90;;;;;;5042158;28;20322;-78
2023/12/17 03:50:42;;;;;;;22.25;14.55;;;0.60;99.90;;;;;;5042147;28;20037;-75
2023/12/17 03:53:10;;;;;;;21.55;13.80;;;0.60;99.90;;;;;;5041511;28;20044;-75
2023/12/17 03:55:39;;;;;;;22.08;13.98;;;0.60;99.90;;;;;;5024635;28;20018;-76
2023/12/17 03:58:05;;;;;;;21.35;13.75;;;0.70;99.90;;;;;;5042073;28;20045;-76
2023/12/17 04:00:30;;;;;;;19.77;13.70;;;0.80;99.90;;;;;;5042003;28;20347;-75
2023/12/17 04:02:56;;;;;;;21.10;13.55;;;0.80;99.90;;;;;;5041909;28;20033;-75
2023/12/17 04:05:25;;;;;;;19.77;13.10;;;0.80;99.90;;;;;;5037364;28;20089;-75
2023/12/17 04:07:51;;;;;;;20.98;13.65;;;0.80;99.90;;;;;;5022164;28;20045;-75
2023/12/17 04:10:16;;;;;;;18.52;13.07;;;0.80;99.90;;;;;;5022483;28;20022;-77
2023/12/17 04:12:42;;;;;;;21.25;13.55;;;0.80;99.90;;;;;;5022267;28;20161;-76
2023/12/17 04:15:08;;;;;;;21.85;13.98;;;0.80;99.90;;;;;;5037759;28;20285;-76
2023/12/17 04:17:34;;;;;;;21.80;13.75;;;0.70;99.90;;;;;;5022438;28;20022;-77
2023/12/17 04:19:59;;;;;;;22.25;13.00;;;0.70;99.90;;;;;;5040323;28;20071;-74
2023/12/17 04:22:25;;;;;;;20.88;13.82;;;0.70;99.90;;;;;;5042177;28;20041;-75
2023/12/17 04:24:51;;;;;;;19.95;13.45;;;0.70;99.90;;;;;;5040546;28;20032;-75
2023/12/17 04:27:17;;;;;;;21.90;13.45;;;0.70;99.90;;;;;;5042066;28;20025;-74
2023/12/17 04:29:42;;;;;;;20.30;13.55;;;0.60;99.90;;;;;;5041698;28;20227;-75
2023/12/17 04:32:08;;;;;;;23.35;13.48;;;0.60;99.90;;;;;;5027948;28;20587;-77
2023/12/17 04:34:34;;;;;;;22.08;13.45;;;0.60;99.90;;;;;;5045549;28;20056;-77
2023/12/17 04:36:59;;;;;;;21.10;13.40;;;0.60;99.90;;;;;;5044524;28;20030;-76
2023/12/17 04:39:28;;;;;;;20.35;13.93;;;0.60;99.90;;;;;;5045763;28;20032;-75
2023/12/17 04:41:54;;;;;;;19.80;12.85;;;0.50;99.90;;;;;;5045087;28;20052;-75
2023/12/17 04:44:20;;;;;;;23.80;13.98;;;0.60;99.90;;;;;;5044590;28;20052;-76
2023/12/17 04:46:45;;;;;;;23.33;14.00;;;0.60;99.90;;;;;;5045018;28;20346;-76
2023/12/17 04:49:11;;;;;;;24.23;13.50;;;0.60;99.90;;;;;;5045462;28;20152;-78
2023/12/17 04:51:37;;;;;;;23.45;13.38;;;0.60;99.90;;;;;;5045423;28;20089;-75
2023/12/17 04:54:03;;;;;;;20.70;13.40;;;0.50;99.90;;;;;;5044502;28;20308;-75
2023/12/17 04:56:29;;;;;;;20.92;13.10;;;0.50;99.90;;;;;;5045317;28;20052;-75
2023/12/17 04:58:54;;;;;;;22.23;13.00;;;0.50;99.90;;;;;;5044967;28;20327;-76
2023/12/17 05:01:20;;;;;;;22.98;13.25;;;0.50;99.90;;;;;;5045103;28;20045;-77
2023/12/17 05:03:46;;;;;;;19.40;13.00;;;0.60;99.90;;;;;;5044689;28;20033;-78
2023/12/17 05:06:11;;;;;;;23.77;13.73;;;0.60;99.90;;;;;;5044928;28;20044;-78
2023/12/17 05:08:37;;;;;;;20.33;13.40;;;0.50;99.90;;;;;;5044846;28;20022;-75
2023/12/17 05:11:03;;;;;;;22.92;13.45;;;0.50;99.90;;;;;;5043639;28;20079;-77
2023/12/17 05:13:28;;;;;;;21.58;13.40;;;0.50;99.90;;;;;;5043870;28;20048;-74
2023/12/17 05:15:54;;;;;;;25.35;14.13;;;0.50;99.90;;;;;;5044261;28;20028;-74
2023/12/17 05:18:19;;;;;;;22.23;14.15;;;0.50;99.90;;;;;;5044728;28;20100;-75
2023/12/17 05:20:48;;;;;;;20.65;13.07;;;0.50;99.90;;;;;;5044221;28;20212;-76
2023/12/17 05:23:13;;;;;;;;;;;0.50;99.90;;;;;;5045382;28;20136;-77
2023/12/17 05:25:39;;;;;;;21.05;13.43;;;0.40;99.90;;;;;;5044261;28;19909;-75
2023/12/17 05:28:07;;;;;;;22.38;14.10;;;0.40;99.90;;;;;;5043780;28;20060;-75
2023/12/17 05:30:32;;;;;;;21.77;13.60;;;0.40;99.90;;;;;;5044701;28;20124;-73
2023/12/17 05:32:58;;;;;;;21.67;13.98;;;0.30;99.90;;;;;;5043774;28;20981;-74
2023/12/17 05:35:24;;;;;;;21.02;13.18;;;0.30;99.90;;;;;;5026800;28;20055;-75
2023/12/17 05:37:49;;;;;;;21.48;14.23;;;0.30;99.90;;;;;;5043876;28;20028;-75
2023/12/17 05:40:15;;;;;;;21.73;13.60;;;0.20;99.90;;;;;;5026503;28;20025;-76
2023/12/17 05:42:41;;;;;;;20.75;13.10;;;0.20;99.90;;;;;;5042989;28;20033;-77
2023/12/17 05:45:07;;;;;;;22.40;14.32;;;0.20;99.90;;;;;;5042540;28;20314;-73
2023/12/17 05:47:33;;;;;;;21.05;13.98;;;0.20;99.90;;;;;;5044487;28;20032;-76
2023/12/17 05:49:59;;;;;;;20.55;13.85;;;0.20;99.90;;;;;;5043523;28;20037;-75
2023/12/17 05:52:24;;;;;;;21.27;13.75;;;0.20;99.90;;;;;;5044019;28;20334;-76
2023/12/17 05:54:50;;;;;;;21.52;13.10;;;0.20;99.90;;;;;;5043851;28;20259;-74
2023/12/17 05:57:16;;;;;;;23.45;14.35;;;0.20;99.90;;;;;;5026311;28;20087;-74
2023/12/17 05:59:42;;;;;;;20.60;13.95;;;0.20;99.90;;;;;;5025755;28;20384;-77
2023/12/17 06:02:08;;;;;;;22.13;12.88;;;0.20;99.90;;;;;;5043032;28;20025;-76
2023/12/17 06:04:33;;;;;;;22.98;14.35;;;0.20;99.90;;;;;;5043814;28;20029;-74
2023/12/17 06:06:59;;;;;;;20.38;13.80;;;0.20;99.90;;;;;;5043302;28;20045;-76
2023/12/17 06:09:26;;;;;;;21.60;14.05;;;0.20;99.90;;;;;;5042727;28;20088;-77
2023/12/17 06:11:51;;;;;;;22.73;14.43;;;0.20;99.90;;;;;;5043236;28;20036;-75
2023/12/17 06:14:17;;;;;;;20.95;13.93;;;0.20;99.90;;;;;;5043795;28;20335;-76
2023/12/17 06:16:44;;;;;;;21.80;13.80;;;0.10;99.90;;;;;;5042444;28;20037;-76
2023/12/17 06:19:11;;;;;;;21.52;13.90;;;0.20;99.90;;;;;;5040223;28;20033;-75
2023/12/17 06:21:37;;;;;;;22.15;14.00;;;0.20;99.90;;;;;;5043422;28;20041;-74
2023/12/17 06:24:03;;;;;;;22.80;14.27;;;0.20;99.90;;;;;;5043148;28;20033;-77
2023/12/17 06:26:30;;;;;;;20.63;13.20;;;0.20;99.90;;;;;;5043368;28;20053;-72
2023/12/17 06:28:56;;;;;;;22.70;14.95;;;0.20;99.90;;;;;;5042650;28;20310;-76
2023/12/17 06:31:22;;;;;;;21.38;13.68;;;0.20;99.90;;;;;;5043442;28;20255;-75
2023/12/17 06:33:48;;;;;;;23.67;13.65;;;0.20;99.90;;;;;;5042649;28;20034;-73
2023/12/17 06:36:14;;;;;;;21.75;13.57;;;0.20;99.90;;;;;;5042411;28;20028;-77
2023/12/17 06:38:40;;;;;;;20.58;14.07;;;0.20;99.90;;;;;;5025480;28;20084;-76
2023/12/17 06:41:08;;;;;;;22.05;13.38;;;0.20;99.90;;;;;;5024907;28;20049;-76
2023/12/17 06:43:33;;;;;;;24.80;14.15;;;0.20;99.90;;;;;;5043471;28;20343;-74
2023/12/17 06:46:06;;;;;;;19.65;13.38;;;0.20;99.90;;;;;;5042277;28;20073;-74
2023/12/17 06:48:36;;;;;;;21.10;13.57;;;0.20;99.90;;;;;;5042821;28;20267;-73
2023/12/17 06:51:05;;;;;;;20.20;12.73;;;0.10;99.90;;;;;;5027538;28;20021;-77
2023/12/17 06:53:31;;;;;;;25.13;13.45;;;0.10;99.90;;;;;;5024025;28;20033;-76
2023/12/17 06:55:56;;;;;;;22.35;13.48;;;0.10;99.90;;;;;;5042322;28;20206;-76
2023/12/17 06:58:22;;;;;;;20.67;13.70;;;0.10;99.90;;;;;;5025119;28;20046;-78
2023/12/17 07:00:48;;;;;;;20.08;13.07;;;0.10;99.90;;;;;;5042283;28;20227;-76
2023/12/17 07:03:21;;;;;;;21.10;13.35;;;0.20;99.90;;;;;;5041963;28;20334;-77
2023/12/17 07:05:47;;;;;;;22.02;14.05;;;0.20;99.90;;;;;;5042607;28;20021;-76
2023/12/17 07:08:13;;;;;;;23.73;14.57;;;0.30;99.90;;;;;;5042247;28;20242;-76
2023/12/17 07:10:38;;;;;;;22.48;14.18;;;0.30;99.90;;;;;;5041092;28;20177;-76
2023/12/17 07:13:04;;;;;;;24.45;15.85;;;0.30;99.90;;;;;;5042025;28;20108;-76
2023/12/17 07:15:30;;;;;;;22.92;13.65;;;0.30;99.90;;;;;;5042854;28;20101;-77
2023/12/17 07:17:56;;;;;;;20.73;13.57;;;0.20;99.90;;;;;;5042525;28;20032;-76
2023/12/17 07:20:21;;;;;;;20.88;13.48;;;0.30;99.90;;;;;;5042707;28;20037;-77
2023/12/17 07:22:48;;;;;;;22.13;13.90;;;0.20;99.90;;;;;;5042083;28;20092;-77
2023/12/17 07:25:15;;;;;;;23.50;13.85;;;0.30;99.90;;;;;;5042325;28;20013;-76
2023/12/17 07:27:41;;;;;;;23.23;13.77;;;0.30;99.90;;;;;;5041759;28;20307;-75
2023/12/17 07:30:08;;;;;;;20.90;12.98;;;0.30;99.90;;;;;;5042022;28;20021;-77
2023/12/17 07:32:34;;;;;;;23.23;13.38;;;0.40;99.90;;;;;;5024841;28;20048;-75
2023/12/17 07:35:00;;;;;;;24.17;13.70;;;0.50;99.90;;;;;;5040826;28;20057;-77
2023/12/17 07:37:25;;;;;;;20.13;13.32;;;0.60;99.90;;;;;;5025082;28;20029;-76
2023/12/17 07:39:57;;;;;;;24.27;13.95;;;0.60;99.90;;;;;;5040485;28;20141;-77
2023/12/17 07:42:28;;;;;;;21.05;13.25;;;0.70;99.90;;;;;;5041466;28;20068;-80
2023/12/17 07:44:54;;;;;;;23.08;13.55;;;0.70;99.90;;;;;;5040920;28;20033;-77
2023/12/17 07:47:20;;;;;;;19.50;12.90;;;0.70;99.90;;;;;;5042005;28;20076;-78
2023/12/17 07:49:46;;;;;;;20.85;12.88;;;0.80;99.90;;;;;;5042103;28;20052;-77
2023/12/17 07:52:12;;;;;;;19.27;12.57;;;0.80;99.90;;;;;;5041985;28;20029;-77
2023/12/17 07:54:38;;;;;;;20.33;13.07;;;0.90;99.90;;;;;;5042343;28;20259;-78
2023/12/17 07:57:03;;;;;;;17.67;12.55;;;0.90;99.90;;;;;;5024257;28;20064;-77
2023/12/17 07:59:29;;;;;;;18.98;12.18;;;1.00;99.90;;;;;;5041085;28;20057;-76
2023/12/17 08:01:55;;;;;;;16.45;11.70;;;1.00;99.90;;;;;;5036557;28;20073;-77
2023/12/17 08:04:20;;;;;;;18.48;11.73;;;1.10;99.90;;;;;;5022210;28;20030;-78
2023/12/17 08:06:46;;;;;;;17.38;11.57;;;1.20;99.90;;;;;;5025433;28;20065;-77
2023/12/17 08:09:12;;;;;;;15.55;11.10;;;1.20;99.90;;;;;;5026093;28;20076;-76
2023/12/17 08:11:41;;;;;;;17.92;11.65;;;1.30;99.90;;;;;;5026076;28;20045;-75
2023/12/17 08:14:06;;;;;;;16.58;11.73;;;1.30;99.90;;;;;;5024294;28;20334;-76
2023/12/17 08:16:32;;;;;;;15.32;10.43;;;1.40;99.90;;;;;;5026179;28;20330;-80
2023/12/17 08:18:58;;;;;;;17.75;11.63;;;1.40;99.90;;;;;;5026664;28;20152;-81
2023/12/17 08:21:23;;;;;;;18.48;11.73;;;1.50;99.90;;;;;;5045592;28;20033;-76
2023/12/17 08:23:49;;;;;;;15.82;10.77;;;1.60;99.90;;;;;;5045336;28;20255;-77
2023/12/17 08:26:15;;;;;;;14.65;10.52;;;1.60;99.90;;;;;;5045531;28;20096;-81
2023/12/17 08:28:40;;;;;;;16.20;10.48;;;1.70;99.90;;;;;;5046003;28;20091;-79
2023/12/17 08:31:09;;;;;;;15.32;9.80;;;1.70;99.90;;;;;;5044717;28;20026;-76
2023/12/17 08:33:36;;;;;;;15.68;9.70;;;1.60;99.90;;;;;;5044528;28;20036;-81
2023/12/17 08:36:02;;;;;;;14.48;9.52;;;1.70;99.90;;;;;;5044663;28;20040;-79
2023/12/17 08:38:27;;;;;;;16.65;10.85;;;1.70;99.90;;;;;;5045438;28;20044;-77
2023/12/17 08:40:54;;;;;;;16.38;10.32;;;1.80;99.90;;;;;;5043738;28;20037;-76
2023/12/17 08:43:20;;;;;;;16.27;10.45;;;1.80;99.90;;;;;;5045084;28;20105;-78
2023/12/17 08:45:49;;;;;;;14.38;10.02;;;1.80;99.90;;;;;;5045449;28;20287;-80
2023/12/17 08:48:15;;;;;;;15.32;9.88;;;1.90;99.90;;;;;;5026952;28;20042;-81
2023/12/17 08:50:40;;;;;;;17.15;11.07;;;1.90;99.90;;;;;;5043426;28;20026;-78
2023/12/17 08:53:06;;;;;;;14.93;9.50;;;2.00;99.90;;;;;;5041813;28;20370;-78
2023/12/17 08:55:32;;;;;;;16.40;10.43;;;2.10;99.90;;;;;;5041459;28;20238;-81
2023/12/17 08:57:57;;;;;;;16.33;11.00;;;2.10;99.90;;;;;;5021335;28;20046;-82
2023/12/17 09:00:23;;;;;;;17.58;10.90;;;2.10;99.90;;;;;;5044168;28;20033;-81
2023/12/17 09:02:49;;;;;;;14.55;10.35;;;2.10;99.90;;;;;;5043972;28;20235;-79
2023/12/17 09:05:15;;;;;;;14.20;9.88;;;2.10;99.90;;;;;;5009738;28;20052;-78
2023/12/17 09:07:41;;;;;;;15.18;9.98;;;2.20;99.90;;;;;;5044188;28;20018;-79
2023/12/17 09:10:07;;;;;;;14.82;9.70;;;2.20;99.90;;;;;;5042146;28;20219;-78
2023/12/17 09:12:58;;;;;;;15.82;9.85;;;2.30;99.90;;;;;;5059374;28;20053;-77
2023/12/17 09:16:00;;;;;;;15.27;10.43;;;2.30;99.90;;;;;;5059377;28;20032;-76
2023/12/17 09:22:14;;;;;;;;;;;2.40;99.90;;;;;;5138190;23;20148;-76
2023/12/17 09:25:06;;;;;;;17.83;10.68;;;2.40;99.90;;;;;;5025407;28;20276;-76
2023/12/17 09:27:32;;;;;;;15.60;10.13;;;2.50;99.90;;;;;;5043112;28;20032;-81
2023/12/17 09:29:58;;;;;;;15.43;10.00;;;2.50;99.90;;;;;;5043246;28;20033;-76
2023/12/17 09:32:24;;;;;;;13.48;9.40;;;2.60;99.90;;;;;;5026684;28;20053;-80
2023/12/17 09:34:49;;;;;;;14.88;9.50;;;2.70;99.90;;;;;;5044060;28;20060;-76
2023/12/17 09:37:15;;;;;;;13.73;9.32;;;2.70;99.90;;;;;;5044226;28;20091;-76
2023/12/17 09:39:41;;;;;;;14.52;9.60;;;2.80;99.90;;;;;;5026763;28;20037;-78
2023/12/17 09:42:54;;;;;;;13.50;9.43;;;2.90;99.90;;;;;;5026143;28;20025;-78
2023/12/17 09:45:44;;;;;;;14.73;10.13;;;3.00;99.90;;;;;;5010408;28;20032;-77
2023/12/17 09:48:10;;;;;;;15.43;10.05;;;3.10;99.90;;;;;;5051966;28;20102;-77
2023/12/17 09:50:36;;;;;;;15.70;9.95;;;3.20;99.90;;;;;;5063191;28;20307;-79
2023/12/17 09:53:01;;;;;;;14.60;9.23;;;3.30;99.90;;;;;;5063571;28;20040;-79
2023/12/17 09:55:58;;;;;;;13.93;9.82;;;3.50;99.90;;;;;;5029368;28;20307;-78
2023/12/17 10:02:15;;;;;;;12.57;9.02;;;3.70;99.90;;;;;;5062572;28;20060;-77
2023/12/17 10:04:41;;;;;;;13.00;8.85;;;3.80;99.90;;;;;;5029514;28;20021;-78
2023/12/17 10:07:08;;;;;;;14.43;9.77;;;3.80;99.90;;;;;;5045367;28;20223;-77
2023/12/17 10:09:35;;;;;;;13.00;9.80;;;3.90;99.90;;;;;;5029214;28;20047;-76
2023/12/17 10:12:05;;;;;;;14.02;9.10;;;3.90;99.90;;;;;;5062657;28;20029;-79
2023/12/17 10:14:31;;;;;;;14.43;9.02;;;4.00;99.90;;;;;;5063290;28;20096;-76
2023/12/17 10:16:58;;;;;;;12.68;8.70;;;4.00;99.90;;;;;;5045113;28;20017;-78
2023/12/17 10:19:24;;;;;;;13.63;8.77;;;4.00;99.90;;;;;;5045706;28;20043;-77
2023/12/17 10:21:50;;;;;;;14.52;8.90;;;4.10;99.90;;;;;;5028476;28;20040;-78
2023/12/17 10:24:19;;;;;;;13.15;9.05;;;4.20;99.90;;;;;;5059311;28;20040;-81
2023/12/17 10:26:46;;;;;;;13.65;8.88;;;4.20;99.90;;;;;;5045292;28;20044;-80
2023/12/17 10:29:20;;;;;;;13.00;8.55;;;4.30;99.90;;;;;;5062813;28;20395;-80
2023/12/17 10:31:50;;;;;;;18.05;9.50;;;4.40;99.90;;;;;;5063493;28;20045;-78
2023/12/17 10:34:20;;;;;;;13.10;9.25;;;4.50;99.90;;;;;;5028698;28;20319;-77
2023/12/17 10:36:53;;;;;;;11.27;8.60;;;4.50;99.90;;;;;;5027935;28;20044;-78
2023/12/17 10:39:19;;;;;;;12.32;8.40;;;4.70;99.90;;;;;;5063193;28;20333;-76
2023/12/17 10:41:53;;;;;;;12.18;8.77;;;4.80;99.90;;;;;;5063248;28;20033;-78
2023/12/17 10:44:23;;;;;;;11.15;8.07;;;4.90;99.90;;;;;;5045431;28;20259;-76
2023/12/17 10:46:51;;;;;;;11.35;8.20;;;5.20;99.90;;;;;;5063157;28;20039;-75
2023/12/17 10:49:19;;;;;;;12.73;9.00;;;5.60;99.90;;;;;;5062217;28;20036;-77
2023/12/17 10:51:46;;;;;;;12.35;9.05;;;5.70;99.90;;;;;;5063283;28;20017;-76
2023/12/17 10:54:12;;;;;;;10.90;7.97;;;6.00;99.90;;;;;;5028170;28;20029;-79
2023/12/17 10:56:54;;;;;;;10.60;8.10;;;6.30;99.90;;;;;;5044465;28;20068;-78
2023/12/17 10:59:27;;;;;;;11.57;7.75;;;6.70;99.90;;;;;;5045135;28;20078;-77
2023/12/17 11:01:55;;;;;;;10.90;7.90;;;7.20;99.90;;;;;;5045016;28;20265;-79
2023/12/17 11:04:24;;;;;;;11.23;8.00;;;7.50;99.90;;;;;;5063071;28;20037;-75
2023/12/17 11:06:51;;;;;;;10.70;8.50;;;7.70;99.90;;;;;;5061212;28;20088;-77
2023/12/17 11:09:17;;;;;;;13.50;8.55;;;7.70;99.90;;;;;;5061996;28;20084;-77
2023/12/17 11:11:45;;;;;;;11.52;8.93;;;7.90;99.90;;;;;;5061936;28;20028;-77
2023/12/17 11:14:11;;;;;;;;;;;8.10;99.90;;;;;;5059085;28;20370;-77
2023/12/17 11:16:38;;;;;;;10.90;8.15;;;8.30;99.90;;;;;;5045120;28;19907;-76
2023/12/17 11:19:04;;;;;;;11.82;7.95;;;8.60;99.30;;;;;;5062113;28;20029;-78
2023/12/17 11:21:34;;;;;;;10.65;7.80;;;8.60;99.40;;;;;;5044802;28;20044;-77
2023/12/17 11:24:00;;;;;;;19.65;8.15;;;9.00;98.40;;;;;;5025017;28;20103;-76
2023/12/17 11:26:26;;;;;;;10.13;7.90;;;9.50;97.60;;;;;;5044496;28;20082;-78
2023/12/17 11:28:54;;;;;;;9.60;7.03;;;9.70;96.30;;;;;;5062015;28;20327;-75
2023/12/17 11:31:23;;;;;;;10.18;7.95;;;9.70;96.10;;;;;;5044823;28;20029;-76
2023/12/17 11:33:52;;;;;;;12.48;7.25;;;9.50;96.10;;;;;;5044842;28;20131;-78
2023/12/17 11:36:18;;;;;;;12.00;7.40;;;9.70;96.00;;;;;;5044416;28;20291;-77
2023/12/17 11:38:48;;;;;;;10.48;7.97;;;9.70;95.60;;;;;;5062432;28;20063;-76
2023/12/17 11:41:16;;;;;;;9.88;7.43;;;9.60;96.30;;;;;;5063043;28;20044;-77
2023/12/17 11:43:42;;;;;;;9.73;6.97;;;9.60;95.60;;;;;;5066698;28;20040;-77
2023/12/17 11:46:11;;;;;;;9.63;7.10;;;10.10;95.60;;;;;;5048089;28;20017;-78
2023/12/17 11:48:37;;;;;;;11.60;7.82;;;10.60;94.40;;;;;;5066050;28;20021;-76
2023/12/17 11:51:03;;;;;;;11.30;7.32;;;11.00;93.90;;;;;;5065895;28;20319;-78
2023/12/17 11:53:30;;;;;;;9.80;7.20;;;11.70;92.80;;;;;;5066122;28;20245;-78
2023/12/17 11:56:01;;;;;;;10.18;7.22;;;12.20;91.50;;;;;;5066069;28;20037;-77
2023/12/17 11:58:29;;;;;;;10.05;7.22;;;12.60;91.10;;;;;;5065326;28;20040;-81
2023/12/17 12:01:05;;;;;;;9.70;7.37;;;12.30;90.80;;;;;;5066000;28;20090;-78
2023/12/17 12:03:31;;;;;;;10.25;6.78;;;12.40;90.80;;;;;;5066425;28;20092;-77
2023/12/17 12:06:04;;;;;;;8.45;7.25;;;12.60;90.60;;;;;;5065864;28;20037;-77
2023/12/17 12:08:37;;;;;;;8.43;6.78;;;12.90;90.10;;;;;;5065804;28;20021;-77
2023/12/17 12:11:03;;;;;;;8.50;6.85;;;13.40;88.10;;;;;;5047939;28;20024;-77
2023/12/17 12:13:36;;;;;;;9.07;6.80;;;13.80;87.80;;;;;;5064578;28;20071;-77
2023/12/17 12:16:03;;;;;;;11.02;6.85;;;14.20;86.00;;;;;;5065550;28;20047;-78
2023/12/17 12:18:29;;;;;;;7.90;6.43;;;14.60;84.00;;;;;;5065715;28;20066;-77
2023/12/17 12:21:38;;;;;;;9.23;7.10;;;14.90;83.00;;;;;;5065882;28;20032;-78
2023/12/17 12:24:27;;;;;;;8.82;7.10;;;15.50;81.70;;;;;;5065804;28;20037;-78
2023/12/17 12:26:53;;;;;;;7.85;7.00;;;15.90;80.10;;;;;;5048968;28;20418;-80
2023/12/17 12:29:34;;;;;;;8.18;6.22;;;16.20;78.40;;;;;;5047571;28;20033;-78
2023/12/17 12:32:05;;;;;;;7.35;6.55;;;16.40;77.90;;;;;;5060921;28;20025;-79
2023/12/17 12:34:39;;;;;;;9.15;6.78;;;15.60;77.80;;;;;;5048378;28;20056;-79
2023/12/17 12:37:07;;;;;;;8.52;6.25;;;15.50;78.70;;;;;;5028271;28;20021;-79
2023/12/17 12:39:45;;;;;;;8.38;6.40;;;15.00;79.60;;;;;;5031304;28;20080;-79
2023/12/17 12:42:17;;;;;;;8.30;6.55;;;14.80;80.20;;;;;;5047271;28;20180;-78
2023/12/17 12:44:42;;;;;;;10.45;6.57;;;14.50;81.40;;;;;;5031080;28;20215;-77
2023/12/17 12:47:08;;;;;;;7.22;6.40;;;14.20;81.30;;;;;;5030267;28;20012;-78
2023/12/17 12:49:34;;;;;;;9.25;6.78;;;14.20;82.40;;;;;;5061201;28;20028;-77